sensor_id;sensor_type;location;lat;lon;timestamp;P1;durP1;ratioP1;P2;durP2;ratioP2
77262;SDS011;66373;52.334;4.806;2023-04-15T00:01:01;9.02;;;7.43;;
77262;SDS011;66373;52.334;4.806;2023-04-15T00:03:28;10.38;;;7.65;;
77262;SDS011;66373;52.334;4.806;2023-04-15T00:06:11;9.85;;;7.18;;
77262;SDS011;66373;52.334;4.806;2023-04-15T00:08:57;8.85;;;6.97;;
77262;SDS011;66373;52.334;4.806;2023-04-15T00:11:24;9.25;;;6.90;;
77262;SDS011;66373;52.334;4.806;2023-04-15T00:13:52;8.43;;;6.82;;
77262;SDS011;66373;52.334;4.806;2023-04-15T00:16:19;7.07;;;5.97;;
77262;SDS011;66373;52.334;4.806;2023-04-15T00:18:46;8.25;;;7.07;;
77262;SDS011;66373;52.334;4.806;2023-04-15T00:21:15;8.30;;;6.70;;
77262;SDS011;66373;52.334;4.806;2023-04-15T00:23:43;8.82;;;6.85;;
77262;SDS011;66373;52.334;4.806;2023-04-15T00:26:14;7.22;;;6.30;;
77262;SDS011;66373;52.334;4.806;2023-04-15T00:28:41;7.80;;;6.20;;
77262;SDS011;66373;52.334;4.806;2023-04-15T00:31:09;7.68;;;6.32;;
77262;SDS011;66373;52.334;4.806;2023-04-15T00:33:37;8.52;;;6.35;;
77262;SDS011;66373;52.334;4.806;2023-04-15T00:36:05;7.65;;;6.55;;
77262;SDS011;66373;52.334;4.806;2023-04-15T00:38:35;8.85;;;6.50;;
77262;SDS011;66373;52.334;4.806;2023-04-15T00:41:04;7.15;;;5.78;;
77262;SDS011;66373;52.334;4.806;2023-04-15T00:43:32;8.32;;;5.72;;
77262;SDS011;66373;52.334;4.806;2023-04-15T00:46:00;6.20;;;5.20;;
77262;SDS011;66373;52.334;4.806;2023-04-15T00:48:29;7.47;;;5.63;;
77262;SDS011;66373;52.334;4.806;2023-04-15T00:50:57;7.28;;;5.88;;
77262;SDS011;66373;52.334;4.806;2023-04-15T00:53:25;6.05;;;5.30;;
77262;SDS011;66373;52.334;4.806;2023-04-15T00:55:54;6.63;;;5.32;;
77262;SDS011;66373;52.334;4.806;2023-04-15T00:58:22;8.52;;;5.28;;
77262;SDS011;66373;52.334;4.806;2023-04-15T01:00:50;7.38;;;5.22;;
77262;SDS011;66373;52.334;4.806;2023-04-15T01:03:19;5.82;;;5.20;;
77262;SDS011;66373;52.334;4.806;2023-04-15T01:05:47;6.43;;;5.00;;
77262;SDS011;66373;52.334;4.806;2023-04-15T01:08:15;5.43;;;4.93;;
77262;SDS011;66373;52.334;4.806;2023-04-15T01:10:43;5.53;;;4.93;;
77262;SDS011;66373;52.334;4.806;2023-04-15T01:13:12;5.18;;;4.68;;
77262;SDS011;66373;52.334;4.806;2023-04-15T01:15:40;5.72;;;4.72;;
77262;SDS011;66373;52.334;4.806;2023-04-15T01:18:08;4.75;;;4.13;;
77262;SDS011;66373;52.334;4.806;2023-04-15T01:20:36;4.82;;;4.32;;
77262;SDS011;66373;52.334;4.806;2023-04-15T01:23:04;5.88;;;4.75;;
77262;SDS011;66373;52.334;4.806;2023-04-15T01:25:33;5.13;;;4.63;;
77262;SDS011;66373;52.334;4.806;2023-04-15T01:28:01;6.00;;;4.88;;
77262;SDS011;66373;52.334;4.806;2023-04-15T01:30:32;5.03;;;4.53;;
77262;SDS011;66373;52.334;4.806;2023-04-15T01:33:00;5.60;;;4.53;;
77262;SDS011;66373;52.334;4.806;2023-04-15T01:35:27;5.55;;;4.00;;
77262;SDS011;66373;52.334;4.806;2023-04-15T01:37:55;3.83;;;3.35;;
77262;SDS011;66373;52.334;4.806;2023-04-15T01:40:30;5.25;;;3.97;;
77262;SDS011;66373;52.334;4.806;2023-04-15T01:42:59;4.97;;;4.47;;
77262;SDS011;66373;52.334;4.806;2023-04-15T01:45:27;6.45;;;4.28;;
77262;SDS011;66373;52.334;4.806;2023-04-15T01:47:54;4.78;;;4.25;;
77262;SDS011;66373;52.334;4.806;2023-04-15T01:50:22;4.60;;;3.80;;
77262;SDS011;66373;52.334;4.806;2023-04-15T01:52:50;3.80;;;3.50;;
77262;SDS011;66373;52.334;4.806;2023-04-15T01:55:17;3.90;;;3.50;;
77262;SDS011;66373;52.334;4.806;2023-04-15T01:57:45;5.40;;;3.92;;
77262;SDS011;66373;52.334;4.806;2023-04-15T02:00:14;4.32;;;3.92;;
77262;SDS011;66373;52.334;4.806;2023-04-15T02:02:42;3.88;;;3.30;;
77262;SDS011;66373;52.334;4.806;2023-04-15T02:05:09;4.78;;;3.25;;
77262;SDS011;66373;52.334;4.806;2023-04-15T02:07:37;4.45;;;4.05;;
77262;SDS011;66373;52.334;4.806;2023-04-15T02:10:04;3.75;;;3.42;;
77262;SDS011;66373;52.334;4.806;2023-04-15T02:12:34;3.55;;;3.25;;
77262;SDS011;66373;52.334;4.806;2023-04-15T02:15:01;4.40;;;3.10;;
77262;SDS011;66373;52.334;4.806;2023-04-15T02:17:32;3.45;;;3.15;;
77262;SDS011;66373;52.334;4.806;2023-04-15T02:20:01;4.90;;;3.50;;
77262;SDS011;66373;52.334;4.806;2023-04-15T02:22:30;5.68;;;3.42;;
77262;SDS011;66373;52.334;4.806;2023-04-15T02:24:58;4.93;;;3.40;;
77262;SDS011;66373;52.334;4.806;2023-04-15T02:27:26;3.85;;;3.10;;
77262;SDS011;66373;52.334;4.806;2023-04-15T02:29:55;3.50;;;3.20;;
77262;SDS011;66373;52.334;4.806;2023-04-15T02:32:22;3.63;;;3.33;;
77262;SDS011;66373;52.334;4.806;2023-04-15T02:34:54;3.70;;;3.10;;
77262;SDS011;66373;52.334;4.806;2023-04-15T02:37:22;3.70;;;3.38;;
77262;SDS011;66373;52.334;4.806;2023-04-15T02:39:52;3.92;;;3.33;;
77262;SDS011;66373;52.334;4.806;2023-04-15T02:42:20;4.03;;;3.30;;
77262;SDS011;66373;52.334;4.806;2023-04-15T02:44:48;4.15;;;3.10;;
77262;SDS011;66373;52.334;4.806;2023-04-15T02:47:16;4.65;;;3.20;;
77262;SDS011;66373;52.334;4.806;2023-04-15T02:49:44;3.13;;;2.83;;
77262;SDS011;66373;52.334;4.806;2023-04-15T02:52:13;4.30;;;3.00;;
77262;SDS011;66373;52.334;4.806;2023-04-15T02:54:41;3.20;;;2.90;;
77262;SDS011;66373;52.334;4.806;2023-04-15T02:57:08;4.40;;;3.13;;
77262;SDS011;66373;52.334;4.806;2023-04-15T02:59:36;3.83;;;2.83;;
77262;SDS011;66373;52.334;4.806;2023-04-15T03:02:03;3.22;;;2.92;;
77262;SDS011;66373;52.334;4.806;2023-04-15T03:04:32;3.83;;;3.05;;
77262;SDS011;66373;52.334;4.806;2023-04-15T03:07:00;3.30;;;2.97;;
77262;SDS011;66373;52.334;4.806;2023-04-15T03:09:29;3.00;;;2.80;;
77262;SDS011;66373;52.334;4.806;2023-04-15T03:11:58;3.33;;;2.83;;
77262;SDS011;66373;52.334;4.806;2023-04-15T03:14:25;3.55;;;2.88;;
77262;SDS011;66373;52.334;4.806;2023-04-15T03:16:53;3.58;;;3.28;;
77262;SDS011;66373;52.334;4.806;2023-04-15T03:19:21;3.13;;;2.83;;
77262;SDS011;66373;52.334;4.806;2023-04-15T03:21:48;3.20;;;2.92;;
77262;SDS011;66373;52.334;4.806;2023-04-15T03:24:17;3.70;;;2.90;;
77262;SDS011;66373;52.334;4.806;2023-04-15T03:26:46;2.90;;;2.70;;
77262;SDS011;66373;52.334;4.806;2023-04-15T03:29:16;3.00;;;2.80;;
77262;SDS011;66373;52.334;4.806;2023-04-15T03:31:44;3.50;;;2.58;;
77262;SDS011;66373;52.334;4.806;2023-04-15T03:34:11;2.63;;;2.42;;
77262;SDS011;66373;52.334;4.806;2023-04-15T03:36:39;3.13;;;2.80;;
77262;SDS011;66373;52.334;4.806;2023-04-15T03:39:06;2.80;;;2.60;;
77262;SDS011;66373;52.334;4.806;2023-04-15T03:41:34;2.97;;;2.70;;
77262;SDS011;66373;52.334;4.806;2023-04-15T03:44:03;3.33;;;2.53;;
77262;SDS011;66373;52.334;4.806;2023-04-15T03:46:31;2.85;;;2.55;;
77262;SDS011;66373;52.334;4.806;2023-04-15T03:48:58;2.92;;;2.67;;
77262;SDS011;66373;52.334;4.806;2023-04-15T03:51:26;3.08;;;2.50;;
77262;SDS011;66373;52.334;4.806;2023-04-15T03:53:53;2.70;;;2.50;;
77262;SDS011;66373;52.334;4.806;2023-04-15T03:56:21;3.30;;;2.67;;
77262;SDS011;66373;52.334;4.806;2023-04-15T03:58:48;2.50;;;2.30;;
77262;SDS011;66373;52.334;4.806;2023-04-15T04:01:17;2.90;;;2.60;;
77262;SDS011;66373;52.334;4.806;2023-04-15T04:03:45;2.90;;;2.70;;
77262;SDS011;66373;52.334;4.806;2023-04-15T04:06:12;3.50;;;2.60;;
77262;SDS011;66373;52.334;4.806;2023-04-15T04:08:41;2.85;;;2.63;;
77262;SDS011;66373;52.334;4.806;2023-04-15T04:11:08;2.63;;;2.40;;
77262;SDS011;66373;52.334;4.806;2023-04-15T04:13:36;4.45;;;2.58;;
77262;SDS011;66373;52.334;4.806;2023-04-15T04:16:03;2.97;;;2.53;;
77262;SDS011;66373;52.334;4.806;2023-04-15T04:18:33;2.97;;;2.58;;
77262;SDS011;66373;52.334;4.806;2023-04-15T04:21:00;2.60;;;2.40;;
77262;SDS011;66373;52.334;4.806;2023-04-15T04:23:28;3.40;;;2.70;;
77262;SDS011;66373;52.334;4.806;2023-04-15T04:25:55;2.38;;;2.25;;
77262;SDS011;66373;52.334;4.806;2023-04-15T04:28:22;2.65;;;2.45;;
77262;SDS011;66373;52.334;4.806;2023-04-15T04:30:50;2.67;;;2.47;;
77262;SDS011;66373;52.334;4.806;2023-04-15T04:33:17;3.55;;;2.78;;
77262;SDS011;66373;52.334;4.806;2023-04-15T04:35:46;2.70;;;2.50;;
77262;SDS011;66373;52.334;4.806;2023-04-15T04:38:14;2.67;;;2.47;;
77262;SDS011;66373;52.334;4.806;2023-04-15T04:40:41;2.20;;;2.00;;
77262;SDS011;66373;52.334;4.806;2023-04-15T04:43:08;2.60;;;2.40;;
77262;SDS011;66373;52.334;4.806;2023-04-15T04:45:36;2.42;;;2.20;;
77262;SDS011;66373;52.334;4.806;2023-04-15T04:48:03;2.70;;;2.50;;
77262;SDS011;66373;52.334;4.806;2023-04-15T04:50:33;2.60;;;2.40;;
77262;SDS011;66373;52.334;4.806;2023-04-15T04:53:02;4.88;;;2.90;;
77262;SDS011;66373;52.334;4.806;2023-04-15T04:55:30;2.42;;;2.25;;
77262;SDS011;66373;52.334;4.806;2023-04-15T04:57:57;2.50;;;2.30;;
77262;SDS011;66373;52.334;4.806;2023-04-15T05:00:25;2.70;;;2.50;;
77262;SDS011;66373;52.334;4.806;2023-04-15T05:02:52;2.72;;;2.45;;
77262;SDS011;66373;52.334;4.806;2023-04-15T05:05:20;2.55;;;2.35;;
77262;SDS011;66373;52.334;4.806;2023-04-15T05:07:48;2.20;;;2.10;;
77262;SDS011;66373;52.334;4.806;2023-04-15T05:10:17;2.90;;;2.35;;
77262;SDS011;66373;52.334;4.806;2023-04-15T05:12:45;2.83;;;2.30;;
77262;SDS011;66373;52.334;4.806;2023-04-15T05:15:12;2.42;;;2.22;;
77262;SDS011;66373;52.334;4.806;2023-04-15T05:17:40;2.72;;;2.53;;
77262;SDS011;66373;52.334;4.806;2023-04-15T05:20:07;2.60;;;2.40;;
77262;SDS011;66373;52.334;4.806;2023-04-15T05:22:36;2.25;;;2.05;;
77262;SDS011;66373;52.334;4.806;2023-04-15T05:25:04;2.70;;;2.50;;
77262;SDS011;66373;52.334;4.806;2023-04-15T05:27:33;2.47;;;2.28;;
77262;SDS011;66373;52.334;4.806;2023-04-15T05:30:01;2.30;;;2.10;;
77262;SDS011;66373;52.334;4.806;2023-04-15T05:32:28;2.40;;;2.20;;
77262;SDS011;66373;52.334;4.806;2023-04-15T05:34:56;3.95;;;2.35;;
77262;SDS011;66373;52.334;4.806;2023-04-15T05:37:23;4.63;;;2.20;;
77262;SDS011;66373;52.334;4.806;2023-04-15T05:39:51;2.15;;;2.00;;
77262;SDS011;66373;52.334;4.806;2023-04-15T05:42:18;3.28;;;2.40;;
77262;SDS011;66373;52.334;4.806;2023-04-15T05:44:47;2.35;;;2.15;;
77262;SDS011;66373;52.334;4.806;2023-04-15T05:47:14;3.35;;;2.42;;
77262;SDS011;66373;52.334;4.806;2023-04-15T05:49:42;2.10;;;1.92;;
77262;SDS011;66373;52.334;4.806;2023-04-15T05:52:10;2.88;;;2.20;;
77262;SDS011;66373;52.334;4.806;2023-04-15T05:54:37;2.58;;;2.38;;
77262;SDS011;66373;52.334;4.806;2023-04-15T05:57:04;2.40;;;2.20;;
77262;SDS011;66373;52.334;4.806;2023-04-15T05:59:32;2.70;;;2.33;;
77262;SDS011;66373;52.334;4.806;2023-04-15T06:02:01;2.28;;;2.15;;
77262;SDS011;66373;52.334;4.806;2023-04-15T06:04:28;2.50;;;2.30;;
77262;SDS011;66373;52.334;4.806;2023-04-15T06:06:57;2.15;;;2.05;;
77262;SDS011;66373;52.334;4.806;2023-04-15T06:09:24;2.30;;;2.20;;
77262;SDS011;66373;52.334;4.806;2023-04-15T06:11:53;2.35;;;2.20;;
77262;SDS011;66373;52.334;4.806;2023-04-15T06:14:20;3.15;;;2.15;;
77262;SDS011;66373;52.334;4.806;2023-04-15T06:16:48;2.40;;;2.20;;
77262;SDS011;66373;52.334;4.806;2023-04-15T06:19:17;2.33;;;2.20;;
77262;SDS011;66373;52.334;4.806;2023-04-15T06:21:44;2.30;;;2.20;;
77262;SDS011;66373;52.334;4.806;2023-04-15T06:24:12;1.98;;;1.88;;
77262;SDS011;66373;52.334;4.806;2023-04-15T06:26:40;1.92;;;1.83;;
77262;SDS011;66373;52.334;4.806;2023-04-15T06:29:07;2.03;;;1.92;;
77262;SDS011;66373;52.334;4.806;2023-04-15T06:31:35;2.05;;;1.95;;
77262;SDS011;66373;52.334;4.806;2023-04-15T06:34:02;2.30;;;2.17;;
77262;SDS011;66373;52.334;4.806;2023-04-15T06:36:31;2.60;;;2.40;;
77262;SDS011;66373;52.334;4.806;2023-04-15T06:38:58;2.38;;;2.20;;
77262;SDS011;66373;52.334;4.806;2023-04-15T06:41:27;2.63;;;2.28;;
77262;SDS011;66373;52.334;4.806;2023-04-15T06:43:54;2.17;;;2.00;;
77262;SDS011;66373;52.334;4.806;2023-04-15T06:46:22;2.10;;;1.90;;
77262;SDS011;66373;52.334;4.806;2023-04-15T06:48:49;1.98;;;1.88;;
77262;SDS011;66373;52.334;4.806;2023-04-15T06:51:17;1.95;;;1.85;;
77262;SDS011;66373;52.334;4.806;2023-04-15T06:53:46;2.22;;;2.03;;
77262;SDS011;66373;52.334;4.806;2023-04-15T06:56:14;2.40;;;2.20;;
77262;SDS011;66373;52.334;4.806;2023-04-15T06:58:41;1.95;;;1.85;;
77262;SDS011;66373;52.334;4.806;2023-04-15T07:01:09;2.10;;;1.90;;
77262;SDS011;66373;52.334;4.806;2023-04-15T07:03:38;2.15;;;2.05;;
77262;SDS011;66373;52.334;4.806;2023-04-15T07:06:06;2.17;;;2.08;;
77262;SDS011;66373;52.334;4.806;2023-04-15T07:08:34;2.15;;;2.05;;
77262;SDS011;66373;52.334;4.806;2023-04-15T07:11:03;2.22;;;2.13;;
77262;SDS011;66373;52.334;4.806;2023-04-15T07:13:30;2.08;;;1.90;;
77262;SDS011;66373;52.334;4.806;2023-04-15T07:15:58;2.00;;;1.90;;
77262;SDS011;66373;52.334;4.806;2023-04-15T07:18:25;2.20;;;1.80;;
77262;SDS011;66373;52.334;4.806;2023-04-15T07:20:53;1.90;;;1.80;;
77262;SDS011;66373;52.334;4.806;2023-04-15T07:23:20;2.03;;;1.90;;
77262;SDS011;66373;52.334;4.806;2023-04-15T07:25:48;2.60;;;1.80;;
77262;SDS011;66373;52.334;4.806;2023-04-15T07:28:18;1.75;;;1.70;;
77262;SDS011;66373;52.334;4.806;2023-04-15T07:30:45;1.80;;;1.70;;
77262;SDS011;66373;52.334;4.806;2023-04-15T07:33:13;2.13;;;2.03;;
77262;SDS011;66373;52.334;4.806;2023-04-15T07:35:41;1.98;;;1.88;;
77262;SDS011;66373;52.334;4.806;2023-04-15T07:38:08;2.00;;;1.90;;
77262;SDS011;66373;52.334;4.806;2023-04-15T07:40:37;2.85;;;1.90;;
77262;SDS011;66373;52.334;4.806;2023-04-15T07:43:05;2.33;;;1.90;;
77262;SDS011;66373;52.334;4.806;2023-04-15T07:45:33;1.70;;;1.70;;
77262;SDS011;66373;52.334;4.806;2023-04-15T07:48:04;1.92;;;1.83;;
77262;SDS011;66373;52.334;4.806;2023-04-15T07:50:32;1.90;;;1.80;;
77262;SDS011;66373;52.334;4.806;2023-04-15T07:53:00;1.67;;;1.58;;
77262;SDS011;66373;52.334;4.806;2023-04-15T07:55:27;1.90;;;1.80;;
77262;SDS011;66373;52.334;4.806;2023-04-15T07:57:55;1.55;;;1.50;;
77262;SDS011;66373;52.334;4.806;2023-04-15T08:00:22;1.75;;;1.65;;
77262;SDS011;66373;52.334;4.806;2023-04-15T08:02:52;1.80;;;1.70;;
77262;SDS011;66373;52.334;4.806;2023-04-15T08:05:21;1.77;;;1.67;;
77262;SDS011;66373;52.334;4.806;2023-04-15T08:07:49;1.80;;;1.70;;
77262;SDS011;66373;52.334;4.806;2023-04-15T08:10:16;1.80;;;1.70;;
77262;SDS011;66373;52.334;4.806;2023-04-15T08:12:44;1.65;;;1.42;;
77262;SDS011;66373;52.334;4.806;2023-04-15T08:15:14;1.90;;;1.80;;
77262;SDS011;66373;52.334;4.806;2023-04-15T08:17:42;1.60;;;1.60;;
77262;SDS011;66373;52.334;4.806;2023-04-15T08:20:11;1.85;;;1.75;;
77262;SDS011;66373;52.334;4.806;2023-04-15T08:22:39;2.30;;;1.80;;
77262;SDS011;66373;52.334;4.806;2023-04-15T08:25:07;1.70;;;1.70;;
77262;SDS011;66373;52.334;4.806;2023-04-15T08:27:35;1.67;;;1.67;;
77262;SDS011;66373;52.334;4.806;2023-04-15T08:30:03;1.73;;;1.63;;
77262;SDS011;66373;52.334;4.806;2023-04-15T08:32:31;1.65;;;1.65;;
77262;SDS011;66373;52.334;4.806;2023-04-15T08:34:58;1.83;;;1.73;;
77262;SDS011;66373;52.334;4.806;2023-04-15T08:37:27;1.55;;;1.52;;
77262;SDS011;66373;52.334;4.806;2023-04-15T08:39:54;2.13;;;1.92;;
77262;SDS011;66373;52.334;4.806;2023-04-15T08:42:22;1.58;;;1.50;;
77262;SDS011;66373;52.334;4.806;2023-04-15T08:44:57;1.40;;;1.40;;
77262;SDS011;66373;52.334;4.806;2023-04-15T08:47:27;1.85;;;1.75;;
77262;SDS011;66373;52.334;4.806;2023-04-15T08:49:56;1.90;;;1.80;;
77262;SDS011;66373;52.334;4.806;2023-04-15T08:52:25;1.92;;;1.80;;
77262;SDS011;66373;52.334;4.806;2023-04-15T08:54:55;1.55;;;1.55;;
77262;SDS011;66373;52.334;4.806;2023-04-15T08:57:25;1.75;;;1.65;;
77262;SDS011;66373;52.334;4.806;2023-04-15T08:59:53;1.80;;;1.70;;
77262;SDS011;66373;52.334;4.806;2023-04-15T09:02:22;1.65;;;1.63;;
77262;SDS011;66373;52.334;4.806;2023-04-15T09:04:51;1.92;;;1.83;;
77262;SDS011;66373;52.334;4.806;2023-04-15T09:07:19;1.48;;;1.48;;
77262;SDS011;66373;52.334;4.806;2023-04-15T09:09:47;1.70;;;1.58;;
77262;SDS011;66373;52.334;4.806;2023-04-15T09:12:16;1.65;;;1.55;;
77262;SDS011;66373;52.334;4.806;2023-04-15T09:14:44;1.40;;;1.40;;
77262;SDS011;66373;52.334;4.806;2023-04-15T09:17:12;1.48;;;1.48;;
77262;SDS011;66373;52.334;4.806;2023-04-15T09:19:45;1.60;;;1.52;;
77262;SDS011;66373;52.334;4.806;2023-04-15T09:22:13;1.30;;;1.30;;
77262;SDS011;66373;52.334;4.806;2023-04-15T09:24:41;1.67;;;1.50;;
77262;SDS011;66373;52.334;4.806;2023-04-15T09:27:08;1.70;;;1.60;;
77262;SDS011;66373;52.334;4.806;2023-04-15T09:29:37;1.50;;;1.50;;
77262;SDS011;66373;52.334;4.806;2023-04-15T09:32:13;1.73;;;1.40;;
77262;SDS011;66373;52.334;4.806;2023-04-15T09:34:41;1.60;;;1.60;;
77262;SDS011;66373;52.334;4.806;2023-04-15T09:37:09;1.67;;;1.58;;
77262;SDS011;66373;52.334;4.806;2023-04-15T09:39:44;1.60;;;1.50;;
77262;SDS011;66373;52.334;4.806;2023-04-15T09:42:14;1.70;;;1.60;;
77262;SDS011;66373;52.334;4.806;2023-04-15T09:44:50;1.65;;;1.60;;
77262;SDS011;66373;52.334;4.806;2023-04-15T09:47:27;1.52;;;1.52;;
77262;SDS011;66373;52.334;4.806;2023-04-15T09:49:55;1.38;;;1.38;;
77262;SDS011;66373;52.334;4.806;2023-04-15T09:52:22;1.50;;;1.40;;
77262;SDS011;66373;52.334;4.806;2023-04-15T09:54:51;1.45;;;1.35;;
77262;SDS011;66373;52.334;4.806;2023-04-15T09:57:20;1.30;;;1.30;;
77262;SDS011;66373;52.334;4.806;2023-04-15T09:59:50;1.60;;;1.50;;
77262;SDS011;66373;52.334;4.806;2023-04-15T10:02:18;2.13;;;1.60;;
77262;SDS011;66373;52.334;4.806;2023-04-15T10:04:46;1.35;;;1.30;;
77262;SDS011;66373;52.334;4.806;2023-04-15T10:07:15;1.40;;;1.33;;
77262;SDS011;66373;52.334;4.806;2023-04-15T10:09:45;3.28;;;1.60;;
77262;SDS011;66373;52.334;4.806;2023-04-15T10:12:14;1.40;;;1.40;;
77262;SDS011;66373;52.334;4.806;2023-04-15T10:14:43;1.40;;;1.40;;
77262;SDS011;66373;52.334;4.806;2023-04-15T10:17:14;1.30;;;1.30;;
77262;SDS011;66373;52.334;4.806;2023-04-15T10:22:12;1.50;;;1.50;;
77262;SDS011;66373;52.334;4.806;2023-04-15T10:24:40;1.40;;;1.40;;
77262;SDS011;66373;52.334;4.806;2023-04-15T10:27:09;1.42;;;1.42;;
77262;SDS011;66373;52.334;4.806;2023-04-15T10:29:37;1.63;;;1.50;;
77262;SDS011;66373;52.334;4.806;2023-04-15T10:32:05;1.60;;;1.60;;
77262;SDS011;66373;52.334;4.806;2023-04-15T10:34:34;1.30;;;1.30;;
77262;SDS011;66373;52.334;4.806;2023-04-15T10:37:03;1.50;;;1.40;;
77262;SDS011;66373;52.334;4.806;2023-04-15T10:39:37;1.40;;;1.30;;
77262;SDS011;66373;52.334;4.806;2023-04-15T10:42:06;2.03;;;1.42;;
77262;SDS011;66373;52.334;4.806;2023-04-15T10:44:34;1.38;;;1.38;;
77262;SDS011;66373;52.334;4.806;2023-04-15T10:47:05;1.33;;;1.33;;
77262;SDS011;66373;52.334;4.806;2023-04-15T10:49:43;1.50;;;1.50;;
77262;SDS011;66373;52.334;4.806;2023-04-15T10:52:12;1.70;;;1.60;;
77262;SDS011;66373;52.334;4.806;2023-04-15T10:54:40;1.30;;;1.30;;
77262;SDS011;66373;52.334;4.806;2023-04-15T10:57:08;1.50;;;1.50;;
77262;SDS011;66373;52.334;4.806;2023-04-15T11:00:00;1.42;;;1.38;;
77262;SDS011;66373;52.334;4.806;2023-04-15T11:02:39;1.50;;;1.40;;
77262;SDS011;66373;52.334;4.806;2023-04-15T11:05:13;1.33;;;1.33;;
77262;SDS011;66373;52.334;4.806;2023-04-15T11:07:46;1.40;;;1.40;;
77262;SDS011;66373;52.334;4.806;2023-04-15T11:13:23;1.55;;;1.30;;
77262;SDS011;66373;52.334;4.806;2023-04-15T11:15:58;1.42;;;1.42;;
77262;SDS011;66373;52.334;4.806;2023-04-15T11:18:27;1.27;;;1.27;;
77262;SDS011;66373;52.334;4.806;2023-04-15T11:20:58;1.25;;;1.25;;
77262;SDS011;66373;52.334;4.806;2023-04-15T11:23:29;1.58;;;1.48;;
77262;SDS011;66373;52.334;4.806;2023-04-15T11:25:59;1.60;;;1.50;;
77262;SDS011;66373;52.334;4.806;2023-04-15T11:28:27;1.30;;;1.30;;
77262;SDS011;66373;52.334;4.806;2023-04-15T11:30:55;1.30;;;1.30;;
77262;SDS011;66373;52.334;4.806;2023-04-15T11:33:23;1.33;;;1.33;;
77262;SDS011;66373;52.334;4.806;2023-04-15T11:35:51;1.40;;;1.40;;
77262;SDS011;66373;52.334;4.806;2023-04-15T11:38:21;1.65;;;1.55;;
77262;SDS011;66373;52.334;4.806;2023-04-15T11:40:49;1.50;;;1.40;;
77262;SDS011;66373;52.334;4.806;2023-04-15T11:43:18;1.83;;;1.48;;
77262;SDS011;66373;52.334;4.806;2023-04-15T11:45:50;1.40;;;1.40;;
77262;SDS011;66373;52.334;4.806;2023-04-15T11:48:19;1.50;;;1.40;;
77262;SDS011;66373;52.334;4.806;2023-04-15T11:50:52;1.40;;;1.40;;
77262;SDS011;66373;52.334;4.806;2023-04-15T11:53:21;1.35;;;1.35;;
77262;SDS011;66373;52.334;4.806;2023-04-15T11:55:51;1.70;;;1.60;;
77262;SDS011;66373;52.334;4.806;2023-04-15T11:58:20;1.50;;;1.50;;
77262;SDS011;66373;52.334;4.806;2023-04-15T12:00:48;2.88;;;1.70;;
77262;SDS011;66373;52.334;4.806;2023-04-15T12:03:22;1.60;;;1.50;;
77262;SDS011;66373;52.334;4.806;2023-04-15T12:06:07;1.60;;;1.48;;
77262;SDS011;66373;52.334;4.806;2023-04-15T12:08:51;1.50;;;1.40;;
77262;SDS011;66373;52.334;4.806;2023-04-15T12:11:29;1.40;;;1.40;;
77262;SDS011;66373;52.334;4.806;2023-04-15T12:13:58;1.60;;;1.50;;
77262;SDS011;66373;52.334;4.806;2023-04-15T12:16:30;1.50;;;1.40;;
77262;SDS011;66373;52.334;4.806;2023-04-15T12:19:04;1.75;;;1.65;;
77262;SDS011;66373;52.334;4.806;2023-04-15T12:21:34;1.40;;;1.40;;
77262;SDS011;66373;52.334;4.806;2023-04-15T12:24:04;1.50;;;1.50;;
77262;SDS011;66373;52.334;4.806;2023-04-15T12:26:33;1.52;;;1.42;;
77262;SDS011;66373;52.334;4.806;2023-04-15T12:29:02;1.65;;;1.40;;
77262;SDS011;66373;52.334;4.806;2023-04-15T12:31:31;1.60;;;1.50;;
77262;SDS011;66373;52.334;4.806;2023-04-15T12:33:59;1.50;;;1.50;;
77262;SDS011;66373;52.334;4.806;2023-04-15T12:36:27;1.42;;;1.42;;
77262;SDS011;66373;52.334;4.806;2023-04-15T12:38:54;1.35;;;1.35;;
77262;SDS011;66373;52.334;4.806;2023-04-15T12:41:23;1.67;;;1.58;;
77262;SDS011;66373;52.334;4.806;2023-04-15T12:43:51;1.48;;;1.48;;
77262;SDS011;66373;52.334;4.806;2023-04-15T12:46:18;1.52;;;1.50;;
77262;SDS011;66373;52.334;4.806;2023-04-15T12:48:44;1.70;;;1.60;;
77262;SDS011;66373;52.334;4.806;2023-04-15T12:51:11;1.63;;;1.58;;
77262;SDS011;66373;52.334;4.806;2023-04-15T12:53:39;1.40;;;1.40;;
77262;SDS011;66373;52.334;4.806;2023-04-15T12:56:06;1.48;;;1.42;;
77262;SDS011;66373;52.334;4.806;2023-04-15T12:58:34;1.40;;;1.40;;
77262;SDS011;66373;52.334;4.806;2023-04-15T13:01:01;1.40;;;1.40;;
77262;SDS011;66373;52.334;4.806;2023-04-15T13:03:28;1.70;;;1.60;;
77262;SDS011;66373;52.334;4.806;2023-04-15T13:05:55;1.90;;;1.35;;
77262;SDS011;66373;52.334;4.806;2023-04-15T13:08:22;1.60;;;1.60;;
77262;SDS011;66373;52.334;4.806;2023-04-15T13:10:49;1.20;;;1.20;;
77262;SDS011;66373;52.334;4.806;2023-04-15T13:13:16;1.60;;;1.50;;
77262;SDS011;66373;52.334;4.806;2023-04-15T13:15:44;1.35;;;1.35;;
77262;SDS011;66373;52.334;4.806;2023-04-15T13:18:11;1.45;;;1.38;;
77262;SDS011;66373;52.334;4.806;2023-04-15T13:20:38;1.58;;;1.50;;
77262;SDS011;66373;52.334;4.806;2023-04-15T13:23:05;1.30;;;1.30;;
77262;SDS011;66373;52.334;4.806;2023-04-15T13:25:33;1.50;;;1.40;;
77262;SDS011;66373;52.334;4.806;2023-04-15T13:28:00;1.60;;;1.52;;
77262;SDS011;66373;52.334;4.806;2023-04-15T13:30:28;1.73;;;1.63;;
77262;SDS011;66373;52.334;4.806;2023-04-15T13:32:57;1.60;;;1.50;;
77262;SDS011;66373;52.334;4.806;2023-04-15T13:35:24;3.13;;;1.60;;
77262;SDS011;66373;52.334;4.806;2023-04-15T13:37:52;1.50;;;1.50;;
77262;SDS011;66373;52.334;4.806;2023-04-15T13:40:19;2.47;;;1.50;;
77262;SDS011;66373;52.334;4.806;2023-04-15T13:42:46;1.30;;;1.30;;
77262;SDS011;66373;52.334;4.806;2023-04-15T13:45:14;1.60;;;1.50;;
77262;SDS011;66373;52.334;4.806;2023-04-15T13:47:41;1.42;;;1.40;;
77262;SDS011;66373;52.334;4.806;2023-04-15T13:50:10;1.65;;;1.55;;
77262;SDS011;66373;52.334;4.806;2023-04-15T13:52:38;1.88;;;1.77;;
77262;SDS011;66373;52.334;4.806;2023-04-15T13:55:06;1.50;;;1.50;;
77262;SDS011;66373;52.334;4.806;2023-04-15T13:57:33;1.65;;;1.55;;
77262;SDS011;66373;52.334;4.806;2023-04-15T14:00:00;1.63;;;1.52;;
77262;SDS011;66373;52.334;4.806;2023-04-15T14:02:31;1.50;;;1.50;;
77262;SDS011;66373;52.334;4.806;2023-04-15T14:04:58;1.60;;;1.50;;
77262;SDS011;66373;52.334;4.806;2023-04-15T14:07:27;1.38;;;1.38;;
77262;SDS011;66373;52.334;4.806;2023-04-15T14:09:54;1.60;;;1.50;;
77262;SDS011;66373;52.334;4.806;2023-04-15T14:12:21;1.45;;;1.45;;
77262;SDS011;66373;52.334;4.806;2023-04-15T14:14:48;1.67;;;1.58;;
77262;SDS011;66373;52.334;4.806;2023-04-15T14:17:15;1.65;;;1.55;;
77262;SDS011;66373;52.334;4.806;2023-04-15T14:19:42;4.47;;;1.90;;
77262;SDS011;66373;52.334;4.806;2023-04-15T14:22:09;1.80;;;1.50;;
77262;SDS011;66373;52.334;4.806;2023-04-15T14:24:37;1.60;;;1.50;;
77262;SDS011;66373;52.334;4.806;2023-04-15T14:27:04;2.30;;;1.77;;
77262;SDS011;66373;52.334;4.806;2023-04-15T14:29:32;1.50;;;1.40;;
77262;SDS011;66373;52.334;4.806;2023-04-15T14:31:59;1.70;;;1.60;;
77262;SDS011;66373;52.334;4.806;2023-04-15T14:34:26;2.30;;;1.60;;
77262;SDS011;66373;52.334;4.806;2023-04-15T14:36:53;1.73;;;1.67;;
77262;SDS011;66373;52.334;4.806;2023-04-15T14:39:20;1.70;;;1.60;;
77262;SDS011;66373;52.334;4.806;2023-04-15T14:41:49;1.52;;;1.42;;
77262;SDS011;66373;52.334;4.806;2023-04-15T14:44:16;2.00;;;1.40;;
77262;SDS011;66373;52.334;4.806;2023-04-15T14:46:44;1.77;;;1.67;;
77262;SDS011;66373;52.334;4.806;2023-04-15T14:49:11;1.60;;;1.50;;
77262;SDS011;66373;52.334;4.806;2023-04-15T14:51:39;1.60;;;1.50;;
77262;SDS011;66373;52.334;4.806;2023-04-15T14:54:07;2.00;;;1.50;;
77262;SDS011;66373;52.334;4.806;2023-04-15T14:56:34;1.70;;;1.60;;
77262;SDS011;66373;52.334;4.806;2023-04-15T14:59:03;1.80;;;1.50;;
77262;SDS011;66373;52.334;4.806;2023-04-15T15:01:30;2.33;;;1.65;;